createdAt,value
2022-11-03T00:00:50.552Z,9.14
2022-11-03T00:03:36.213Z,9.12
2022-11-03T00:06:21.433Z,9.10
2022-11-03T00:09:09.291Z,9.09
2022-11-03T00:11:54.848Z,9.09
2022-11-03T00:14:40.213Z,9.09
2022-11-03T00:17:25.597Z,9.06
2022-11-03T00:20:11.286Z,9.05
2022-11-03T00:22:56.853Z,9.05
2022-11-03T00:25:42.020Z,9.06
2022-11-03T00:28:27.479Z,8.99
2022-11-03T00:31:18.608Z,8.95
2022-11-03T00:34:05.324Z,8.92
2022-11-03T00:36:50.354Z,8.91
2022-11-03T00:39:35.960Z,8.90
2022-11-03T00:42:21.320Z,8.89
2022-11-03T00:45:07.013Z,8.88
2022-11-03T00:48:14.716Z,8.87
2022-11-03T00:51:00.624Z,8.87
2022-11-03T00:53:48.465Z,8.87
2022-11-03T00:56:39.565Z,8.84
2022-11-03T00:59:25.157Z,8.81
2022-11-03T01:02:10.546Z,8.78
2022-11-03T01:05:14.666Z,8.74
2022-11-03T01:11:08.585Z,8.71
2022-11-03T01:13:54.115Z,8.77
2022-11-03T01:16:40.502Z,8.76
2022-11-03T01:19:26.159Z,8.73
2022-11-03T01:22:12.322Z,8.70
2022-11-03T01:24:57.691Z,8.70
2022-11-03T01:27:43.003Z,8.65
2022-11-03T01:30:28.418Z,8.62
2022-11-03T01:33:14.924Z,8.61
2022-11-03T01:36:00.426Z,8.61
2022-11-03T01:38:46.006Z,8.62
2022-11-03T01:41:31.255Z,8.64
2022-11-03T01:44:16.852Z,8.65
2022-11-03T01:47:14.693Z,8.63
2022-11-03T01:50:10.124Z,8.62
2022-11-03T01:52:58.624Z,8.64
2022-11-03T01:55:46.708Z,8.64
2022-11-03T01:58:37.185Z,8.63
2022-11-03T02:01:22.781Z,8.61
2022-11-03T02:04:13.021Z,8.58
2022-11-03T02:07:17.345Z,8.55
2022-11-03T02:10:03.785Z,8.41
2022-11-03T02:12:49.533Z,8.28
2022-11-03T02:15:35.765Z,8.18
2022-11-03T02:18:24.770Z,8.12
2022-11-03T02:21:25.523Z,8.04
2022-11-03T02:24:28.796Z,7.98
2022-11-03T02:27:14.009Z,8.00
2022-11-03T02:29:59.451Z,7.98
2022-11-03T02:33:23.191Z,7.99
2022-11-03T02:36:19.344Z,7.99
2022-11-03T02:39:34.039Z,8.04
2022-11-03T02:42:21.238Z,8.08
2022-11-03T02:45:13.235Z,8.09
2022-11-03T02:48:03.436Z,8.10
2022-11-03T02:50:49.194Z,8.09
2022-11-03T02:53:39.985Z,8.12
2022-11-03T02:56:25.704Z,8.10
2022-11-03T02:59:19.080Z,8.08
2022-11-03T03:02:11.641Z,8.10
2022-11-03T03:05:02.017Z,8.06
2022-11-03T03:07:53.052Z,8.04
2022-11-03T03:10:42.790Z,8.01
2022-11-03T03:13:28.327Z,8.00
2022-11-03T03:16:26.074Z,8.02
2022-11-03T03:19:33.033Z,8.06
2022-11-03T03:22:42.021Z,8.09
2022-11-03T03:25:50.865Z,8.11
2022-11-03T03:28:51.748Z,8.07
2022-11-03T03:31:41.406Z,8.04
2022-11-03T03:34:35.036Z,8.05
2022-11-03T03:37:23.322Z,8.04
2022-11-03T03:40:11.736Z,8.01
2022-11-03T03:42:57.484Z,7.99
2022-11-03T03:45:45.071Z,8.03
2022-11-03T03:48:30.193Z,8.01
2022-11-03T03:51:19.640Z,8.01
2022-11-03T03:54:04.746Z,8.00
2022-11-03T03:57:02.560Z,8.00
2022-11-03T03:59:47.880Z,8.03
2022-11-03T04:02:33.138Z,8.02
2022-11-03T04:05:18.602Z,8.02
2022-11-03T04:08:04.070Z,8.03
2022-11-03T04:11:08.176Z,8.00
2022-11-03T04:14:12.036Z,7.99
2022-11-03T04:17:15.658Z,7.98
2022-11-03T04:20:19.559Z,8.00
2022-11-03T04:23:04.649Z,8.02
2022-11-03T04:25:55.661Z,8.00
2022-11-03T04:28:42.243Z,8.01
2022-11-03T04:31:36.360Z,8.00
2022-11-03T04:34:23.682Z,8.00
2022-11-03T04:37:12.813Z,7.96
2022-11-03T04:40:01.276Z,7.88
2022-11-03T04:42:46.666Z,7.82
2022-11-03T04:45:34.022Z,7.78
2022-11-03T04:48:22.257Z,7.70
2022-11-03T04:51:14.832Z,7.64
2022-11-03T04:54:13.772Z,7.60
2022-11-03T04:56:58.987Z,7.56
2022-11-03T04:59:47.563Z,7.52
2022-11-03T05:02:33.241Z,7.48
2022-11-03T05:05:24.481Z,7.43
2022-11-03T05:08:09.853Z,7.42
2022-11-03T05:10:55.363Z,7.39
2022-11-03T05:13:40.461Z,7.39
2022-11-03T05:16:25.555Z,7.33
2022-11-03T05:19:27.200Z,7.31
2022-11-03T05:22:18.786Z,7.31
2022-11-03T05:25:42.119Z,7.33
2022-11-03T05:28:50.658Z,7.31
2022-11-03T05:31:36.952Z,7.29
2022-11-03T05:34:33.070Z,7.26
2022-11-03T05:37:34.802Z,7.19
2022-11-03T05:40:26.339Z,7.15
2022-11-03T05:43:17.499Z,7.16
2022-11-03T05:46:11.035Z,7.15
2022-11-03T05:48:57.743Z,7.16
2022-11-03T05:51:45.027Z,7.22
2022-11-03T05:54:35.178Z,7.27
2022-11-03T05:57:20.738Z,7.26
2022-11-03T06:00:21.496Z,7.22
2022-11-03T06:03:06.818Z,7.19
2022-11-03T06:05:53.074Z,7.16
2022-11-03T06:08:41.532Z,7.11
2022-11-03T06:11:36.244Z,7.07
2022-11-03T06:14:25.079Z,7.07
2022-11-03T06:17:21.256Z,7.08
2022-11-03T06:20:16.285Z,7.12
2022-11-03T06:23:02.096Z,7.13
2022-11-03T06:25:48.808Z,7.07
2022-11-03T06:28:37.673Z,7.07
2022-11-03T06:31:32.481Z,7.08
2022-11-03T06:34:44.073Z,7.10
2022-11-03T06:37:34.410Z,7.10
2022-11-03T06:40:19.476Z,7.14
2022-11-03T06:43:43.084Z,7.23
2022-11-03T06:46:28.277Z,7.22
2022-11-03T06:49:32.948Z,7.21
2022-11-03T06:52:39.972Z,7.23
2022-11-03T06:55:30.100Z,7.25
2022-11-03T06:58:19.831Z,7.81
2022-11-03T07:01:30.008Z,8.00
2022-11-03T07:04:20.309Z,8.02
2022-11-03T07:07:06.262Z,8.59
2022-11-03T07:09:55.002Z,8.48
2022-11-03T07:12:41.525Z,8.37
2022-11-03T07:15:32.481Z,8.25
2022-11-03T07:18:27.755Z,8.16
2022-11-03T07:21:30.951Z,8.17
2022-11-03T07:24:27.663Z,8.18
2022-11-03T07:27:28.962Z,8.27
2022-11-03T07:30:19.842Z,8.35
2022-11-03T07:33:20.306Z,8.39
2022-11-03T07:36:15.281Z,8.45
2022-11-03T07:39:02.593Z,8.43
2022-11-03T07:41:48.982Z,8.65
2022-11-03T17:54:15.993Z,11.09
2022-11-03T17:57:01.897Z,11.04
2022-11-03T17:59:50.766Z,11.04
2022-11-03T18:02:40.122Z,11.08
2022-11-03T18:05:31.298Z,11.10
2022-11-03T18:08:17.975Z,11.11
2022-11-03T18:11:03.630Z,11.11
2022-11-03T18:13:50.133Z,11.12
2022-11-03T18:16:35.374Z,11.19
2022-11-03T18:19:21.697Z,11.16
2022-11-03T18:22:08.653Z,11.19
2022-11-03T18:24:53.718Z,11.20
2022-11-03T18:27:38.976Z,11.17
2022-11-03T18:30:24.638Z,11.20
2022-11-03T18:33:18.233Z,11.15
2022-11-03T18:36:06.895Z,11.15
2022-11-03T18:38:56.120Z,11.14
2022-11-03T18:41:41.666Z,11.17
2022-11-03T18:44:29.450Z,11.17
2022-11-03T18:47:14.388Z,11.15
2022-11-03T18:49:59.599Z,11.14
2022-11-03T18:52:50.582Z,11.13
2022-11-03T18:55:36.071Z,11.13
2022-11-03T18:58:24.442Z,11.14
2022-11-03T19:01:21.329Z,11.15
2022-11-03T19:04:14.987Z,11.16
2022-11-03T19:07:02.771Z,11.15
2022-11-03T19:09:48.869Z,11.16
2022-11-03T19:12:38.844Z,11.16
2022-11-03T19:15:24.898Z,11.13
2022-11-03T19:18:13.120Z,11.11
2022-11-03T19:20:58.648Z,11.08
2022-11-03T19:23:47.860Z,11.09
2022-11-03T19:26:42.393Z,11.08
2022-11-03T19:29:30.704Z,11.06
2022-11-03T23:01:02.627Z,10.09
2022-11-03T23:03:48.048Z,10.11
2022-11-03T23:06:38.657Z,10.10
2022-11-03T23:09:24.172Z,10.08
2022-11-03T23:12:10.226Z,10.08
2022-11-03T23:15:14.319Z,10.06
2022-11-03T23:18:19.223Z,10.02
2022-11-03T23:21:07.306Z,9.99
2022-11-03T23:24:11.360Z,9.96
2022-11-03T23:26:56.782Z,9.93
2022-11-03T23:29:42.051Z,9.92
2022-11-03T23:32:27.501Z,9.89
2022-11-03T23:35:14.429Z,9.89
2022-11-03T23:37:59.756Z,9.87
2022-11-03T23:40:45.158Z,9.87
2022-11-03T23:43:30.697Z,9.84
2022-11-03T23:46:37.649Z,9.84
2022-11-03T23:49:22.909Z,9.83
2022-11-03T23:52:07.970Z,9.83
2022-11-03T23:54:53.380Z,9.83
2022-11-03T23:57:57.244Z,9.86
